West Bend, Wisconsin
Current Conditions -  °F | °C
As of 11:55 AM on Saturday 25 Oct 2014 (Local Time) from KETB Reporting Station
Clear Clear  
Wind Chill: 17°   Ceiling: Unl
Heat Index: 17°   Visibility: 10mi
Dew Point:   Wind: 16mph
Humidity: 32%   Direction: 280°W
Pressure: 29.89"   Gusts: 29mph
Location:  43.41°N, 88.18°W
Report Text: KETB 251655Z AUTO 28014G25KT 10SM CLR 17/00 A2989 RMK AO2
Loading
Personal Weather Stations






























Interactive Weather Map
Tropical Storm Tracking
New forecast layout! Learn more

10-Day Weather Forecast

Advertisements
Track Severe Weather on mobile